sensor_id;sensor_type;location;lat;lon;timestamp;P1;durP1;ratioP1;P2;durP2;ratioP2
51304;SDS011;37392;50.964;6.952;2023-03-01T00:01:07;22.02;;;7.35;;
51304;SDS011;37392;50.964;6.952;2023-03-01T00:03:35;15.10;;;7.07;;
51304;SDS011;37392;50.964;6.952;2023-03-01T00:06:01;14.73;;;6.43;;
51304;SDS011;37392;50.964;6.952;2023-03-01T00:08:28;19.98;;;6.95;;
51304;SDS011;37392;50.964;6.952;2023-03-01T00:11:14;12.70;;;6.53;;
51304;SDS011;37392;50.964;6.952;2023-03-01T00:13:46;10.93;;;6.70;;
51304;SDS011;37392;50.964;6.952;2023-03-01T00:16:21;12.98;;;5.88;;
51304;SDS011;37392;50.964;6.952;2023-03-01T00:18:54;14.10;;;6.38;;
51304;SDS011;37392;50.964;6.952;2023-03-01T00:21:20;10.35;;;6.38;;
51304;SDS011;37392;50.964;6.952;2023-03-01T00:23:47;11.82;;;5.70;;
51304;SDS011;37392;50.964;6.952;2023-03-01T00:26:13;13.63;;;6.78;;
51304;SDS011;37392;50.964;6.952;2023-03-01T00:28:40;9.82;;;5.95;;
51304;SDS011;37392;50.964;6.952;2023-03-01T00:31:11;12.70;;;7.43;;
51304;SDS011;37392;50.964;6.952;2023-03-01T00:33:42;12.00;;;6.90;;
51304;SDS011;37392;50.964;6.952;2023-03-01T00:36:09;11.60;;;6.13;;
51304;SDS011;37392;50.964;6.952;2023-03-01T00:38:37;13.95;;;6.88;;
51304;SDS011;37392;50.964;6.952;2023-03-01T00:41:05;16.10;;;6.97;;
51304;SDS011;37392;50.964;6.952;2023-03-01T00:43:42;13.57;;;6.43;;
51304;SDS011;37392;50.964;6.952;2023-03-01T00:46:18;18.25;;;6.47;;
51304;SDS011;37392;50.964;6.952;2023-03-01T00:48:50;14.18;;;7.05;;
51304;SDS011;37392;50.964;6.952;2023-03-01T00:51:18;17.00;;;7.35;;
51304;SDS011;37392;50.964;6.952;2023-03-01T00:53:53;16.30;;;7.97;;
51304;SDS011;37392;50.964;6.952;2023-03-01T00:56:21;14.73;;;7.32;;
51304;SDS011;37392;50.964;6.952;2023-03-01T00:58:47;17.90;;;7.22;;
51304;SDS011;37392;50.964;6.952;2023-03-01T01:01:17;13.80;;;7.20;;
51304;SDS011;37392;50.964;6.952;2023-03-01T01:03:57;18.60;;;7.47;;
51304;SDS011;37392;50.964;6.952;2023-03-01T01:06:30;19.83;;;7.30;;
51304;SDS011;37392;50.964;6.952;2023-03-01T01:09:08;16.83;;;7.25;;
51304;SDS011;37392;50.964;6.952;2023-03-01T01:11:43;16.35;;;6.88;;
51304;SDS011;37392;50.964;6.952;2023-03-01T01:14:14;16.17;;;7.20;;
51304;SDS011;37392;50.964;6.952;2023-03-01T01:16:41;14.93;;;6.55;;
51304;SDS011;37392;50.964;6.952;2023-03-01T01:19:07;13.63;;;6.85;;
51304;SDS011;37392;50.964;6.952;2023-03-01T01:21:35;11.40;;;6.35;;
51304;SDS011;37392;50.964;6.952;2023-03-01T01:24:02;14.65;;;7.05;;
51304;SDS011;37392;50.964;6.952;2023-03-01T01:26:30;15.30;;;8.38;;
51304;SDS011;37392;50.964;6.952;2023-03-01T01:28:58;12.65;;;6.97;;
51304;SDS011;37392;50.964;6.952;2023-03-01T01:31:25;11.75;;;6.53;;
51304;SDS011;37392;50.964;6.952;2023-03-01T01:33:53;16.25;;;7.00;;
51304;SDS011;37392;50.964;6.952;2023-03-01T01:36:20;12.52;;;7.05;;
51304;SDS011;37392;50.964;6.952;2023-03-01T01:38:46;10.75;;;7.07;;
51304;SDS011;37392;50.964;6.952;2023-03-01T01:41:12;13.80;;;6.60;;
51304;SDS011;37392;50.964;6.952;2023-03-01T01:43:42;12.30;;;7.15;;
51304;SDS011;37392;50.964;6.952;2023-03-01T01:46:25;12.85;;;7.95;;
51304;SDS011;37392;50.964;6.952;2023-03-01T01:49:03;14.43;;;7.80;;
51304;SDS011;37392;50.964;6.952;2023-03-01T01:51:36;13.52;;;6.90;;
51304;SDS011;37392;50.964;6.952;2023-03-01T01:54:11;13.93;;;6.60;;
51304;SDS011;37392;50.964;6.952;2023-03-01T01:56:51;18.25;;;6.85;;
51304;SDS011;37392;50.964;6.952;2023-03-01T01:59:26;12.45;;;6.80;;
51304;SDS011;37392;50.964;6.952;2023-03-01T02:01:52;14.57;;;6.80;;
51304;SDS011;37392;50.964;6.952;2023-03-01T02:04:18;17.73;;;7.22;;
51304;SDS011;37392;50.964;6.952;2023-03-01T02:06:48;11.85;;;6.95;;
51304;SDS011;37392;50.964;6.952;2023-03-01T02:09:22;12.77;;;7.13;;
51304;SDS011;37392;50.964;6.952;2023-03-01T02:11:48;12.75;;;7.05;;
51304;SDS011;37392;50.964;6.952;2023-03-01T02:14:16;14.95;;;7.70;;
51304;SDS011;37392;50.964;6.952;2023-03-01T02:16:42;15.45;;;7.88;;
51304;SDS011;37392;50.964;6.952;2023-03-01T02:19:08;17.67;;;7.53;;
51304;SDS011;37392;50.964;6.952;2023-03-01T02:21:48;12.20;;;7.43;;
51304;SDS011;37392;50.964;6.952;2023-03-01T02:27:22;17.13;;;7.70;;
51304;SDS011;37392;50.964;6.952;2023-03-01T02:30:13;14.10;;;7.57;;
51304;SDS011;37392;50.964;6.952;2023-03-01T02:32:40;17.23;;;7.80;;
51304;SDS011;37392;50.964;6.952;2023-03-01T02:35:08;11.02;;;7.00;;
51304;SDS011;37392;50.964;6.952;2023-03-01T02:40:05;17.98;;;8.23;;
51304;SDS011;37392;50.964;6.952;2023-03-01T02:42:43;15.70;;;8.07;;
51304;SDS011;37392;50.964;6.952;2023-03-01T02:45:16;14.07;;;7.90;;
51304;SDS011;37392;50.964;6.952;2023-03-01T02:47:42;14.15;;;6.93;;
51304;SDS011;37392;50.964;6.952;2023-03-01T02:50:37;14.52;;;6.55;;
51304;SDS011;37392;50.964;6.952;2023-03-01T02:55:42;16.05;;;7.68;;
51304;SDS011;37392;50.964;6.952;2023-03-01T02:58:07;13.23;;;7.68;;
51304;SDS011;37392;50.964;6.952;2023-03-01T03:00:38;14.85;;;8.68;;
51304;SDS011;37392;50.964;6.952;2023-03-01T03:03:15;12.57;;;7.38;;
51304;SDS011;37392;50.964;6.952;2023-03-01T03:05:46;13.65;;;7.70;;
51304;SDS011;37392;50.964;6.952;2023-03-01T03:08:13;18.08;;;7.93;;
51304;SDS011;37392;50.964;6.952;2023-03-01T03:10:48;18.92;;;8.30;;
51304;SDS011;37392;50.964;6.952;2023-03-01T03:13:14;18.63;;;9.10;;
51304;SDS011;37392;50.964;6.952;2023-03-01T03:15:41;17.67;;;8.38;;
51304;SDS011;37392;50.964;6.952;2023-03-01T03:18:09;14.05;;;7.75;;
51304;SDS011;37392;50.964;6.952;2023-03-01T03:20:38;17.58;;;8.45;;
51304;SDS011;37392;50.964;6.952;2023-03-01T03:23:06;15.65;;;8.25;;
51304;SDS011;37392;50.964;6.952;2023-03-01T03:25:31;13.98;;;8.00;;
51304;SDS011;37392;50.964;6.952;2023-03-01T03:27:57;15.65;;;8.23;;
51304;SDS011;37392;50.964;6.952;2023-03-01T03:30:24;17.33;;;9.10;;
51304;SDS011;37392;50.964;6.952;2023-03-01T03:32:56;17.63;;;7.78;;
51304;SDS011;37392;50.964;6.952;2023-03-01T03:35:27;16.73;;;9.85;;
51304;SDS011;37392;50.964;6.952;2023-03-01T03:37:57;17.75;;;8.65;;
51304;SDS011;37392;50.964;6.952;2023-03-01T03:40:33;13.65;;;8.20;;
51304;SDS011;37392;50.964;6.952;2023-03-01T03:43:06;14.90;;;8.95;;
51304;SDS011;37392;50.964;6.952;2023-03-01T03:45:40;15.85;;;8.73;;
51304;SDS011;37392;50.964;6.952;2023-03-01T03:48:07;13.52;;;7.70;;
51304;SDS011;37392;50.964;6.952;2023-03-01T03:50:34;19.60;;;10.02;;
51304;SDS011;37392;50.964;6.952;2023-03-01T03:53:01;21.23;;;10.07;;
51304;SDS011;37392;50.964;6.952;2023-03-01T03:55:29;13.38;;;8.70;;
51304;SDS011;37392;50.964;6.952;2023-03-01T03:57:56;21.70;;;9.35;;
51304;SDS011;37392;50.964;6.952;2023-03-01T04:00:27;18.83;;;7.88;;
51304;SDS011;37392;50.964;6.952;2023-03-01T04:02:53;15.48;;;8.20;;
51304;SDS011;37392;50.964;6.952;2023-03-01T04:05:22;18.50;;;8.73;;
51304;SDS011;37392;50.964;6.952;2023-03-01T04:07:49;16.20;;;9.05;;
51304;SDS011;37392;50.964;6.952;2023-03-01T04:10:25;14.98;;;8.85;;
51304;SDS011;37392;50.964;6.952;2023-03-01T04:12:55;22.75;;;8.82;;
51304;SDS011;37392;50.964;6.952;2023-03-01T04:15:21;18.33;;;8.77;;
51304;SDS011;37392;50.964;6.952;2023-03-01T04:17:49;19.63;;;9.40;;
51304;SDS011;37392;50.964;6.952;2023-03-01T04:20:20;19.98;;;9.93;;
51304;SDS011;37392;50.964;6.952;2023-03-01T04:22:59;15.77;;;9.45;;
51304;SDS011;37392;50.964;6.952;2023-03-01T04:25:51;20.88;;;10.57;;
51304;SDS011;37392;50.964;6.952;2023-03-01T04:30:49;34.33;;;14.98;;
51304;SDS011;37392;50.964;6.952;2023-03-01T04:33:16;27.92;;;13.10;;
51304;SDS011;37392;50.964;6.952;2023-03-01T04:35:42;25.42;;;12.20;;
51304;SDS011;37392;50.964;6.952;2023-03-01T04:38:08;27.58;;;12.57;;
51304;SDS011;37392;50.964;6.952;2023-03-01T04:40:33;17.20;;;9.93;;
51304;SDS011;37392;50.964;6.952;2023-03-01T04:42:59;17.98;;;9.27;;
51304;SDS011;37392;50.964;6.952;2023-03-01T04:45:26;22.42;;;11.13;;
51304;SDS011;37392;50.964;6.952;2023-03-01T04:47:52;25.50;;;12.88;;
51304;SDS011;37392;50.964;6.952;2023-03-01T04:50:18;27.13;;;12.35;;
51304;SDS011;37392;50.964;6.952;2023-03-01T04:52:45;25.05;;;11.13;;
51304;SDS011;37392;50.964;6.952;2023-03-01T04:55:12;21.17;;;10.93;;
51304;SDS011;37392;50.964;6.952;2023-03-01T04:57:38;18.98;;;9.57;;
51304;SDS011;37392;50.964;6.952;2023-03-01T05:00:06;18.85;;;10.50;;
51304;SDS011;37392;50.964;6.952;2023-03-01T05:03:05;23.00;;;10.90;;
51304;SDS011;37392;50.964;6.952;2023-03-01T05:05:31;18.67;;;9.25;;
51304;SDS011;37392;50.964;6.952;2023-03-01T05:08:00;19.92;;;10.75;;
51304;SDS011;37392;50.964;6.952;2023-03-01T05:10:30;17.48;;;9.98;;
51304;SDS011;37392;50.964;6.952;2023-03-01T05:12:57;21.75;;;10.02;;
51304;SDS011;37392;50.964;6.952;2023-03-01T05:15:25;17.45;;;9.27;;
51304;SDS011;37392;50.964;6.952;2023-03-01T05:17:52;22.55;;;10.18;;
51304;SDS011;37392;50.964;6.952;2023-03-01T05:20:21;24.55;;;11.45;;
51304;SDS011;37392;50.964;6.952;2023-03-01T05:22:54;23.90;;;10.93;;
51304;SDS011;37392;50.964;6.952;2023-03-01T05:25:23;27.35;;;11.00;;
51304;SDS011;37392;50.964;6.952;2023-03-01T05:27:49;22.45;;;10.88;;
51304;SDS011;37392;50.964;6.952;2023-03-01T05:30:15;29.27;;;11.88;;
51304;SDS011;37392;50.964;6.952;2023-03-01T05:32:43;25.55;;;12.02;;
51304;SDS011;37392;50.964;6.952;2023-03-01T05:35:11;25.67;;;13.20;;
51304;SDS011;37392;50.964;6.952;2023-03-01T05:37:40;21.75;;;12.43;;
51304;SDS011;37392;50.964;6.952;2023-03-01T05:40:10;22.73;;;12.30;;
51304;SDS011;37392;50.964;6.952;2023-03-01T05:42:42;22.63;;;12.13;;
51304;SDS011;37392;50.964;6.952;2023-03-01T05:45:12;30.17;;;12.85;;
51304;SDS011;37392;50.964;6.952;2023-03-01T05:47:40;25.20;;;12.82;;
51304;SDS011;37392;50.964;6.952;2023-03-01T05:50:10;27.80;;;13.55;;
51304;SDS011;37392;50.964;6.952;2023-03-01T05:52:45;22.63;;;12.38;;
51304;SDS011;37392;50.964;6.952;2023-03-01T05:55:14;26.42;;;13.25;;
51304;SDS011;37392;50.964;6.952;2023-03-01T05:57:41;21.52;;;11.07;;
51304;SDS011;37392;50.964;6.952;2023-03-01T06:00:07;21.85;;;12.20;;
51304;SDS011;37392;50.964;6.952;2023-03-01T06:02:34;26.65;;;13.40;;
51304;SDS011;37392;50.964;6.952;2023-03-01T06:05:00;21.70;;;11.32;;
51304;SDS011;37392;50.964;6.952;2023-03-01T06:07:25;25.63;;;10.93;;
51304;SDS011;37392;50.964;6.952;2023-03-01T06:09:51;26.75;;;12.15;;
51304;SDS011;37392;50.964;6.952;2023-03-01T06:12:16;24.50;;;12.40;;
51304;SDS011;37392;50.964;6.952;2023-03-01T06:14:42;23.08;;;11.25;;
51304;SDS011;37392;50.964;6.952;2023-03-01T06:17:08;20.48;;;11.30;;
51304;SDS011;37392;50.964;6.952;2023-03-01T06:19:33;22.35;;;11.90;;
51304;SDS011;37392;50.964;6.952;2023-03-01T06:21:59;24.17;;;10.45;;
51304;SDS011;37392;50.964;6.952;2023-03-01T06:24:24;30.38;;;11.32;;
51304;SDS011;37392;50.964;6.952;2023-03-01T06:26:50;33.15;;;11.80;;
51304;SDS011;37392;50.964;6.952;2023-03-01T06:29:17;20.70;;;11.10;;
51304;SDS011;37392;50.964;6.952;2023-03-01T06:31:43;24.42;;;12.35;;
51304;SDS011;37392;50.964;6.952;2023-03-01T06:34:10;22.60;;;10.50;;
51304;SDS011;37392;50.964;6.952;2023-03-01T06:36:38;25.73;;;11.55;;
51304;SDS011;37392;50.964;6.952;2023-03-01T06:39:04;21.60;;;11.45;;
51304;SDS011;37392;50.964;6.952;2023-03-01T06:41:30;26.65;;;12.60;;
51304;SDS011;37392;50.964;6.952;2023-03-01T06:43:57;26.05;;;12.85;;
51304;SDS011;37392;50.964;6.952;2023-03-01T06:46:23;29.58;;;12.60;;
51304;SDS011;37392;50.964;6.952;2023-03-01T06:48:49;20.33;;;12.57;;
51304;SDS011;37392;50.964;6.952;2023-03-01T06:51:14;30.02;;;16.00;;
51304;SDS011;37392;50.964;6.952;2023-03-01T06:53:40;32.25;;;14.98;;
51304;SDS011;37392;50.964;6.952;2023-03-01T06:56:06;31.77;;;13.60;;
51304;SDS011;37392;50.964;6.952;2023-03-01T06:58:31;31.42;;;14.43;;
51304;SDS011;37392;50.964;6.952;2023-03-01T07:00:57;30.02;;;15.15;;
51304;SDS011;37392;50.964;6.952;2023-03-01T07:03:23;27.83;;;13.50;;
51304;SDS011;37392;50.964;6.952;2023-03-01T07:05:49;23.20;;;12.82;;
51304;SDS011;37392;50.964;6.952;2023-03-01T07:08:17;26.58;;;13.30;;
51304;SDS011;37392;50.964;6.952;2023-03-01T07:10:43;25.15;;;12.82;;
51304;SDS011;37392;50.964;6.952;2023-03-01T07:13:09;25.70;;;13.25;;
51304;SDS011;37392;50.964;6.952;2023-03-01T07:15:34;21.60;;;12.55;;
51304;SDS011;37392;50.964;6.952;2023-03-01T07:18:01;23.98;;;11.88;;
51304;SDS011;37392;50.964;6.952;2023-03-01T07:20:26;21.48;;;11.82;;
51304;SDS011;37392;50.964;6.952;2023-03-01T07:22:53;19.33;;;10.90;;
51304;SDS011;37392;50.964;6.952;2023-03-01T07:25:19;26.13;;;12.65;;
51304;SDS011;37392;50.964;6.952;2023-03-01T07:27:49;24.85;;;12.73;;
51304;SDS011;37392;50.964;6.952;2023-03-01T07:30:17;20.83;;;12.15;;
51304;SDS011;37392;50.964;6.952;2023-03-01T07:32:42;20.55;;;10.95;;
51304;SDS011;37392;50.964;6.952;2023-03-01T07:35:08;29.23;;;12.18;;
51304;SDS011;37392;50.964;6.952;2023-03-01T07:37:34;18.77;;;11.70;;
51304;SDS011;37392;50.964;6.952;2023-03-01T07:39:59;23.33;;;11.70;;
51304;SDS011;37392;50.964;6.952;2023-03-01T07:42:25;25.17;;;12.65;;
51304;SDS011;37392;50.964;6.952;2023-03-01T07:44:50;17.25;;;11.80;;
51304;SDS011;37392;50.964;6.952;2023-03-01T07:47:16;24.20;;;11.63;;
51304;SDS011;37392;50.964;6.952;2023-03-01T07:49:42;19.25;;;9.88;;
51304;SDS011;37392;50.964;6.952;2023-03-01T07:52:09;20.52;;;10.38;;
51304;SDS011;37392;50.964;6.952;2023-03-01T07:54:38;23.02;;;11.85;;
51304;SDS011;37392;50.964;6.952;2023-03-01T07:57:07;31.40;;;15.67;;
51304;SDS011;37392;50.964;6.952;2023-03-01T07:59:33;21.63;;;10.48;;
51304;SDS011;37392;50.964;6.952;2023-03-01T08:01:58;22.15;;;11.23;;
51304;SDS011;37392;50.964;6.952;2023-03-01T08:04:24;25.00;;;11.48;;
51304;SDS011;37392;50.964;6.952;2023-03-01T08:06:51;23.45;;;11.55;;
51304;SDS011;37392;50.964;6.952;2023-03-01T08:09:18;22.98;;;11.07;;
51304;SDS011;37392;50.964;6.952;2023-03-01T08:11:43;16.00;;;10.38;;
51304;SDS011;37392;50.964;6.952;2023-03-01T08:14:09;17.10;;;10.77;;
51304;SDS011;37392;50.964;6.952;2023-03-01T08:16:35;18.00;;;11.80;;
51304;SDS011;37392;50.964;6.952;2023-03-01T08:19:08;23.15;;;11.70;;
51304;SDS011;37392;50.964;6.952;2023-03-01T08:21:38;19.85;;;12.60;;
51304;SDS011;37392;50.964;6.952;2023-03-01T08:24:05;24.35;;;11.65;;
51304;SDS011;37392;50.964;6.952;2023-03-01T08:26:32;24.05;;;11.57;;
51304;SDS011;37392;50.964;6.952;2023-03-01T08:28:59;16.67;;;11.45;;
51304;SDS011;37392;50.964;6.952;2023-03-01T08:31:30;25.48;;;12.27;;
51304;SDS011;37392;50.964;6.952;2023-03-01T08:34:10;22.23;;;13.05;;
51304;SDS011;37392;50.964;6.952;2023-03-01T08:36:39;23.50;;;11.18;;
51304;SDS011;37392;50.964;6.952;2023-03-01T08:39:08;22.60;;;11.63;;
51304;SDS011;37392;50.964;6.952;2023-03-01T08:41:37;37.75;;;20.52;;
51304;SDS011;37392;50.964;6.952;2023-03-01T08:44:03;23.77;;;12.18;;
51304;SDS011;37392;50.964;6.952;2023-03-01T08:46:31;19.35;;;11.35;;
51304;SDS011;37392;50.964;6.952;2023-03-01T08:49:03;23.60;;;13.18;;
51304;SDS011;37392;50.964;6.952;2023-03-01T08:51:30;19.42;;;11.65;;
51304;SDS011;37392;50.964;6.952;2023-03-01T08:53:57;18.05;;;11.65;;
51304;SDS011;37392;50.964;6.952;2023-03-01T08:56:23;21.08;;;11.80;;
51304;SDS011;37392;50.964;6.952;2023-03-01T08:58:48;20.75;;;11.65;;
51304;SDS011;37392;50.964;6.952;2023-03-01T09:01:16;15.27;;;10.63;;
51304;SDS011;37392;50.964;6.952;2023-03-01T09:03:43;20.17;;;10.35;;
51304;SDS011;37392;50.964;6.952;2023-03-01T09:06:10;20.75;;;12.38;;
51304;SDS011;37392;50.964;6.952;2023-03-01T09:08:40;17.38;;;10.68;;
51304;SDS011;37392;50.964;6.952;2023-03-01T09:11:10;17.95;;;10.60;;
51304;SDS011;37392;50.964;6.952;2023-03-01T09:13:40;18.92;;;10.43;;
51304;SDS011;37392;50.964;6.952;2023-03-01T09:16:06;16.50;;;9.85;;
51304;SDS011;37392;50.964;6.952;2023-03-01T09:18:33;18.55;;;9.70;;
51304;SDS011;37392;50.964;6.952;2023-03-01T09:21:04;17.60;;;10.30;;
51304;SDS011;37392;50.964;6.952;2023-03-01T09:23:36;20.23;;;9.23;;
51304;SDS011;37392;50.964;6.952;2023-03-01T09:26:05;27.35;;;10.90;;
51304;SDS011;37392;50.964;6.952;2023-03-01T09:28:33;19.70;;;10.15;;
51304;SDS011;37392;50.964;6.952;2023-03-01T09:30:59;16.23;;;9.77;;
51304;SDS011;37392;50.964;6.952;2023-03-01T09:33:26;18.95;;;9.43;;
51304;SDS011;37392;50.964;6.952;2023-03-01T09:36:04;18.58;;;10.20;;
51304;SDS011;37392;50.964;6.952;2023-03-01T09:38:33;17.58;;;10.07;;
51304;SDS011;37392;50.964;6.952;2023-03-01T09:40:59;15.50;;;8.93;;
51304;SDS011;37392;50.964;6.952;2023-03-01T09:43:45;15.98;;;9.68;;
51304;SDS011;37392;50.964;6.952;2023-03-01T09:46:19;13.13;;;8.88;;
51304;SDS011;37392;50.964;6.952;2023-03-01T09:48:52;17.75;;;10.57;;
51304;SDS011;37392;50.964;6.952;2023-03-01T09:51:32;15.68;;;9.20;;
51304;SDS011;37392;50.964;6.952;2023-03-01T09:54:04;16.65;;;9.05;;
51304;SDS011;37392;50.964;6.952;2023-03-01T10:01:56;17.67;;;10.05;;
51304;SDS011;37392;50.964;6.952;2023-03-01T10:05:25;16.73;;;9.52;;
51304;SDS011;37392;50.964;6.952;2023-03-01T10:13:27;18.88;;;11.00;;
51304;SDS011;37392;50.964;6.952;2023-03-01T10:15:56;18.15;;;9.82;;
51304;SDS011;37392;50.964;6.952;2023-03-01T10:18:35;18.60;;;9.45;;
51304;SDS011;37392;50.964;6.952;2023-03-01T10:21:07;17.02;;;9.82;;
51304;SDS011;37392;50.964;6.952;2023-03-01T10:23:39;14.55;;;8.88;;
51304;SDS011;37392;50.964;6.952;2023-03-01T10:29:10;14.95;;;9.82;;
51304;SDS011;37392;50.964;6.952;2023-03-01T10:31:42;18.65;;;10.93;;
51304;SDS011;37392;50.964;6.952;2023-03-01T10:34:18;13.68;;;8.80;;
51304;SDS011;37392;50.964;6.952;2023-03-01T10:36:49;13.93;;;9.00;;
51304;SDS011;37392;50.964;6.952;2023-03-01T10:39:19;19.20;;;9.60;;
51304;SDS011;37392;50.964;6.952;2023-03-01T10:41:53;20.05;;;9.85;;
51304;SDS011;37392;50.964;6.952;2023-03-01T10:47:13;20.00;;;11.13;;
51304;SDS011;37392;50.964;6.952;2023-03-01T10:49:59;18.33;;;9.60;;
51304;SDS011;37392;50.964;6.952;2023-03-01T10:52:32;15.43;;;9.88;;
51304;SDS011;37392;50.964;6.952;2023-03-01T10:55:36;17.92;;;8.90;;
51304;SDS011;37392;50.964;6.952;2023-03-01T11:03:19;13.82;;;8.95;;
51304;SDS011;37392;50.964;6.952;2023-03-01T11:05:53;19.55;;;9.73;;
51304;SDS011;37392;50.964;6.952;2023-03-01T11:11:04;15.20;;;10.02;;
51304;SDS011;37392;50.964;6.952;2023-03-01T11:13:37;21.60;;;10.90;;
51304;SDS011;37392;50.964;6.952;2023-03-01T11:16:26;24.45;;;10.05;;
51304;SDS011;37392;50.964;6.952;2023-03-01T11:19:14;18.77;;;10.45;;
51304;SDS011;37392;50.964;6.952;2023-03-01T11:21:55;16.77;;;9.35;;
51304;SDS011;37392;50.964;6.952;2023-03-01T11:27:06;20.23;;;10.52;;
51304;SDS011;37392;50.964;6.952;2023-03-01T11:32:39;17.23;;;10.77;;
51304;SDS011;37392;50.964;6.952;2023-03-01T11:35:21;18.52;;;9.88;;
51304;SDS011;37392;50.964;6.952;2023-03-01T11:37:59;17.42;;;10.77;;
51304;SDS011;37392;50.964;6.952;2023-03-01T11:40:47;20.60;;;10.70;;
51304;SDS011;37392;50.964;6.952;2023-03-01T12:00:51;25.75;;;14.13;;
51304;SDS011;37392;50.964;6.952;2023-03-01T12:24:37;19.40;;;11.38;;
51304;SDS011;37392;50.964;6.952;2023-03-01T12:33:49;17.25;;;9.05;;
51304;SDS011;37392;50.964;6.952;2023-03-01T12:51:31;16.88;;;9.07;;
51304;SDS011;37392;50.964;6.952;2023-03-01T12:54:01;17.85;;;10.07;;
51304;SDS011;37392;50.964;6.952;2023-03-01T12:56:40;21.13;;;9.95;;
51304;SDS011;37392;50.964;6.952;2023-03-01T12:59:15;17.17;;;10.50;;
51304;SDS011;37392;50.964;6.952;2023-03-01T13:02:05;18.70;;;10.38;;
51304;SDS011;37392;50.964;6.952;2023-03-01T13:05:00;20.58;;;9.80;;
51304;SDS011;37392;50.964;6.952;2023-03-01T13:07:49;19.27;;;9.50;;
51304;SDS011;37392;50.964;6.952;2023-03-01T13:13:28;18.75;;;9.80;;
51304;SDS011;37392;50.964;6.952;2023-03-01T13:15:55;18.38;;;9.95;;
51304;SDS011;37392;50.964;6.952;2023-03-01T13:20:52;16.02;;;9.45;;
51304;SDS011;37392;50.964;6.952;2023-03-01T13:26:19;18.48;;;9.63;;
51304;SDS011;37392;50.964;6.952;2023-03-01T13:33:43;18.00;;;10.23;;
51304;SDS011;37392;50.964;6.952;2023-03-01T13:36:45;19.70;;;8.52;;
51304;SDS011;37392;50.964;6.952;2023-03-01T13:39:27;14.82;;;8.85;;
51304;SDS011;37392;50.964;6.952;2023-03-01T13:41:58;22.88;;;9.15;;
51304;SDS011;37392;50.964;6.952;2023-03-01T13:44:35;13.07;;;8.63;;
51304;SDS011;37392;50.964;6.952;2023-03-01T13:47:12;17.83;;;8.40;;
51304;SDS011;37392;50.964;6.952;2023-03-01T13:49:56;16.70;;;8.25;;
51304;SDS011;37392;50.964;6.952;2023-03-01T13:58:03;16.48;;;8.13;;
51304;SDS011;37392;50.964;6.952;2023-03-01T14:00:41;20.05;;;9.65;;
51304;SDS011;37392;50.964;6.952;2023-03-01T14:05:58;17.42;;;9.75;;
51304;SDS011;37392;50.964;6.952;2023-03-01T14:08:32;16.80;;;7.97;;
51304;SDS011;37392;50.964;6.952;2023-03-01T14:16:47;16.33;;;7.95;;
51304;SDS011;37392;50.964;6.952;2023-03-01T14:22:02;13.55;;;6.93;;
51304;SDS011;37392;50.964;6.952;2023-03-01T14:24:49;17.75;;;9.27;;
51304;SDS011;37392;50.964;6.952;2023-03-01T14:27:27;20.23;;;8.85;;
51304;SDS011;37392;50.964;6.952;2023-03-01T14:30:21;28.05;;;9.75;;
51304;SDS011;37392;50.964;6.952;2023-03-01T14:32:54;18.63;;;8.90;;
51304;SDS011;37392;50.964;6.952;2023-03-01T14:35:29;18.10;;;9.35;;
51304;SDS011;37392;50.964;6.952;2023-03-01T14:38:01;19.75;;;9.18;;
51304;SDS011;37392;50.964;6.952;2023-03-01T14:40:32;15.13;;;7.20;;
51304;SDS011;37392;50.964;6.952;2023-03-01T14:43:01;15.35;;;7.95;;
51304;SDS011;37392;50.964;6.952;2023-03-01T14:45:35;16.75;;;9.13;;
51304;SDS011;37392;50.964;6.952;2023-03-01T14:48:01;18.75;;;8.70;;
51304;SDS011;37392;50.964;6.952;2023-03-01T14:50:32;14.45;;;8.77;;
51304;SDS011;37392;50.964;6.952;2023-03-01T14:53:04;13.52;;;8.15;;
51304;SDS011;37392;50.964;6.952;2023-03-01T14:55:34;23.52;;;7.68;;
51304;SDS011;37392;50.964;6.952;2023-03-01T14:58:12;18.13;;;9.23;;
51304;SDS011;37392;50.964;6.952;2023-03-01T15:00:47;13.77;;;8.47;;
51304;SDS011;37392;50.964;6.952;2023-03-01T15:03:36;24.13;;;9.10;;
51304;SDS011;37392;50.964;6.952;2023-03-01T15:06:19;18.95;;;8.38;;
51304;SDS011;37392;50.964;6.952;2023-03-01T15:08:49;17.98;;;9.40;;
51304;SDS011;37392;50.964;6.952;2023-03-01T15:11:20;22.13;;;9.70;;
51304;SDS011;37392;50.964;6.952;2023-03-01T15:13:52;21.38;;;10.13;;
51304;SDS011;37392;50.964;6.952;2023-03-01T15:16:20;16.42;;;9.23;;
51304;SDS011;37392;50.964;6.952;2023-03-01T15:19:02;14.48;;;8.80;;
51304;SDS011;37392;50.964;6.952;2023-03-01T15:21:38;18.75;;;8.75;;
51304;SDS011;37392;50.964;6.952;2023-03-01T15:26:44;16.13;;;8.73;;
51304;SDS011;37392;50.964;6.952;2023-03-01T15:29:23;20.65;;;8.57;;
51304;SDS011;37392;50.964;6.952;2023-03-01T15:32:02;20.48;;;8.82;;
51304;SDS011;37392;50.964;6.952;2023-03-01T15:34:31;18.05;;;10.23;;
51304;SDS011;37392;50.964;6.952;2023-03-01T15:36:58;16.25;;;8.60;;
51304;SDS011;37392;50.964;6.952;2023-03-01T15:39:30;14.15;;;8.73;;
51304;SDS011;37392;50.964;6.952;2023-03-01T15:42:02;22.23;;;8.40;;
51304;SDS011;37392;50.964;6.952;2023-03-01T15:47:43;14.52;;;8.20;;
51304;SDS011;37392;50.964;6.952;2023-03-01T15:50:18;18.67;;;9.90;;
51304;SDS011;37392;50.964;6.952;2023-03-01T15:52:53;17.80;;;8.25;;
51304;SDS011;37392;50.964;6.952;2023-03-01T15:55:24;14.65;;;8.10;;
51304;SDS011;37392;50.964;6.952;2023-03-01T15:57:59;17.38;;;7.88;;
51304;SDS011;37392;50.964;6.952;2023-03-01T16:00:29;17.15;;;7.93;;
51304;SDS011;37392;50.964;6.952;2023-03-01T16:02:55;13.68;;;7.72;;
51304;SDS011;37392;50.964;6.952;2023-03-01T16:05:22;16.02;;;8.30;;
51304;SDS011;37392;50.964;6.952;2023-03-01T16:07:55;20.00;;;9.30;;
51304;SDS011;37392;50.964;6.952;2023-03-01T16:10:22;19.45;;;7.93;;
51304;SDS011;37392;50.964;6.952;2023-03-01T16:12:49;15.77;;;7.93;;
51304;SDS011;37392;50.964;6.952;2023-03-01T16:15:20;15.93;;;7.65;;
51304;SDS011;37392;50.964;6.952;2023-03-01T16:17:49;19.58;;;8.77;;
51304;SDS011;37392;50.964;6.952;2023-03-01T16:20:16;16.42;;;7.53;;
51304;SDS011;37392;50.964;6.952;2023-03-01T16:22:42;12.93;;;7.30;;
51304;SDS011;37392;50.964;6.952;2023-03-01T16:25:19;13.30;;;7.22;;
51304;SDS011;37392;50.964;6.952;2023-03-01T16:27:46;20.70;;;8.13;;
51304;SDS011;37392;50.964;6.952;2023-03-01T16:30:14;16.80;;;8.00;;
51304;SDS011;37392;50.964;6.952;2023-03-01T16:32:44;17.00;;;8.85;;
51304;SDS011;37392;50.964;6.952;2023-03-01T16:35:11;15.95;;;6.85;;
51304;SDS011;37392;50.964;6.952;2023-03-01T16:37:39;16.05;;;7.45;;
51304;SDS011;37392;50.964;6.952;2023-03-01T16:40:06;18.05;;;8.48;;
51304;SDS011;37392;50.964;6.952;2023-03-01T16:42:41;21.13;;;7.90;;
51304;SDS011;37392;50.964;6.952;2023-03-01T16:45:07;15.88;;;7.32;;
51304;SDS011;37392;50.964;6.952;2023-03-01T16:47:34;15.55;;;7.32;;
51304;SDS011;37392;50.964;6.952;2023-03-01T16:50:00;21.83;;;9.43;;
51304;SDS011;37392;50.964;6.952;2023-03-01T16:52:25;20.00;;;7.88;;
51304;SDS011;37392;50.964;6.952;2023-03-01T16:54:51;17.33;;;7.47;;
51304;SDS011;37392;50.964;6.952;2023-03-01T16:57:17;18.75;;;8.05;;
51304;SDS011;37392;50.964;6.952;2023-03-01T16:59:43;22.15;;;7.72;;
51304;SDS011;37392;50.964;6.952;2023-03-01T17:02:09;23.48;;;9.00;;
51304;SDS011;37392;50.964;6.952;2023-03-01T17:04:37;22.38;;;8.20;;
51304;SDS011;37392;50.964;6.952;2023-03-01T17:07:06;18.13;;;7.50;;